sensor_id;sensor_type;location;lat;lon;timestamp;P1;durP1;ratioP1;P2;durP2;ratioP2
23304;SDS011;11821;51.456;8.844;2023-05-16T00:00:05;12.48;;;11.27;;
23304;SDS011;11821;51.456;8.844;2023-05-16T00:02:34;10.95;;;9.82;;
23304;SDS011;11821;51.456;8.844;2023-05-16T00:05:02;12.13;;;11.13;;
23304;SDS011;11821;51.456;8.844;2023-05-16T00:07:41;10.25;;;9.23;;
23304;SDS011;11821;51.456;8.844;2023-05-16T00:10:09;12.70;;;11.60;;
23304;SDS011;11821;51.456;8.844;2023-05-16T00:12:35;12.43;;;11.40;;
23304;SDS011;11821;51.456;8.844;2023-05-16T00:15:07;11.27;;;10.20;;
23304;SDS011;11821;51.456;8.844;2023-05-16T00:17:37;13.82;;;12.60;;
23304;SDS011;11821;51.456;8.844;2023-05-16T00:20:03;13.43;;;12.27;;
23304;SDS011;11821;51.456;8.844;2023-05-16T00:22:32;10.70;;;9.73;;
23304;SDS011;11821;51.456;8.844;2023-05-16T00:24:58;13.63;;;12.48;;
23304;SDS011;11821;51.456;8.844;2023-05-16T00:27:25;10.93;;;10.02;;
23304;SDS011;11821;51.456;8.844;2023-05-16T00:29:51;12.68;;;11.60;;
23304;SDS011;11821;51.456;8.844;2023-05-16T00:32:18;10.40;;;9.40;;
23304;SDS011;11821;51.456;8.844;2023-05-16T00:34:44;11.75;;;10.68;;
23304;SDS011;11821;51.456;8.844;2023-05-16T00:37:11;12.93;;;11.77;;
23304;SDS011;11821;51.456;8.844;2023-05-16T00:39:38;11.55;;;10.55;;
23304;SDS011;11821;51.456;8.844;2023-05-16T00:42:05;10.25;;;9.32;;
23304;SDS011;11821;51.456;8.844;2023-05-16T00:44:31;12.90;;;11.77;;
23304;SDS011;11821;51.456;8.844;2023-05-16T00:46:58;12.40;;;11.30;;
23304;SDS011;11821;51.456;8.844;2023-05-16T00:49:27;13.98;;;12.68;;
23304;SDS011;11821;51.456;8.844;2023-05-16T00:51:54;11.55;;;10.38;;
23304;SDS011;11821;51.456;8.844;2023-05-16T00:54:22;12.85;;;11.68;;
23304;SDS011;11821;51.456;8.844;2023-05-16T00:56:51;11.35;;;10.38;;
23304;SDS011;11821;51.456;8.844;2023-05-16T00:59:18;10.98;;;9.98;;
23304;SDS011;11821;51.456;8.844;2023-05-16T01:01:45;13.45;;;12.27;;
23304;SDS011;11821;51.456;8.844;2023-05-16T01:04:13;14.38;;;13.07;;
23304;SDS011;11821;51.456;8.844;2023-05-16T01:06:39;9.73;;;8.93;;
23304;SDS011;11821;51.456;8.844;2023-05-16T01:09:06;13.65;;;12.35;;
23304;SDS011;11821;51.456;8.844;2023-05-16T01:17:09;17.40;;;15.70;;
23304;SDS011;11821;51.456;8.844;2023-05-16T01:27:32;16.02;;;14.27;;
23304;SDS011;11821;51.456;8.844;2023-05-16T01:30:09;11.75;;;8.98;;
23304;SDS011;11821;51.456;8.844;2023-05-16T01:32:38;14.80;;;13.30;;
23304;SDS011;11821;51.456;8.844;2023-05-16T01:35:04;14.27;;;12.85;;
23304;SDS011;11821;51.456;8.844;2023-05-16T01:37:40;11.45;;;10.35;;
23304;SDS011;11821;51.456;8.844;2023-05-16T01:40:08;11.07;;;10.07;;
23304;SDS011;11821;51.456;8.844;2023-05-16T01:42:41;14.63;;;13.10;;
23304;SDS011;11821;51.456;8.844;2023-05-16T01:47:43;12.98;;;11.57;;
23304;SDS011;11821;51.456;8.844;2023-05-16T01:50:20;12.25;;;11.05;;
23304;SDS011;11821;51.456;8.844;2023-05-16T01:52:57;8.43;;;7.63;;
23304;SDS011;11821;51.456;8.844;2023-05-16T01:58:10;9.02;;;8.23;;
23304;SDS011;11821;51.456;8.844;2023-05-16T02:00:38;10.45;;;9.45;;
23304;SDS011;11821;51.456;8.844;2023-05-16T02:03:05;7.38;;;6.75;;
23304;SDS011;11821;51.456;8.844;2023-05-16T02:05:32;8.57;;;7.88;;
23304;SDS011;11821;51.456;8.844;2023-05-16T02:07:59;9.55;;;8.65;;
23304;SDS011;11821;51.456;8.844;2023-05-16T02:10:26;8.95;;;8.15;;
23304;SDS011;11821;51.456;8.844;2023-05-16T02:12:53;8.73;;;7.82;;
23304;SDS011;11821;51.456;8.844;2023-05-16T02:15:19;8.85;;;8.05;;
23304;SDS011;11821;51.456;8.844;2023-05-16T02:17:46;8.65;;;7.80;;
23304;SDS011;11821;51.456;8.844;2023-05-16T02:20:14;10.93;;;8.45;;
23304;SDS011;11821;51.456;8.844;2023-05-16T02:22:40;9.90;;;8.95;;
23304;SDS011;11821;51.456;8.844;2023-05-16T02:25:08;13.75;;;8.73;;
23304;SDS011;11821;51.456;8.844;2023-05-16T02:27:35;7.60;;;6.90;;
23304;SDS011;11821;51.456;8.844;2023-05-16T02:30:02;11.10;;;8.73;;
23304;SDS011;11821;51.456;8.844;2023-05-16T02:32:30;9.40;;;8.32;;
23304;SDS011;11821;51.456;8.844;2023-05-16T02:34:57;9.43;;;8.35;;
23304;SDS011;11821;51.456;8.844;2023-05-16T02:37:24;9.35;;;8.45;;
23304;SDS011;11821;51.456;8.844;2023-05-16T02:39:50;7.88;;;7.18;;
23304;SDS011;11821;51.456;8.844;2023-05-16T02:42:17;9.57;;;7.68;;
23304;SDS011;11821;51.456;8.844;2023-05-16T02:44:43;8.60;;;7.80;;
23304;SDS011;11821;51.456;8.844;2023-05-16T02:47:10;9.20;;;8.30;;
23304;SDS011;11821;51.456;8.844;2023-05-16T02:49:37;8.07;;;7.28;;
23304;SDS011;11821;51.456;8.844;2023-05-16T02:52:03;9.18;;;7.60;;
23304;SDS011;11821;51.456;8.844;2023-05-16T02:54:30;9.15;;;8.23;;
23304;SDS011;11821;51.456;8.844;2023-05-16T02:56:56;10.57;;;7.90;;
23304;SDS011;11821;51.456;8.844;2023-05-16T02:59:23;8.90;;;8.10;;
23304;SDS011;11821;51.456;8.844;2023-05-16T03:01:50;9.20;;;8.30;;
23304;SDS011;11821;51.456;8.844;2023-05-16T03:04:16;9.73;;;7.70;;
23304;SDS011;11821;51.456;8.844;2023-05-16T03:06:43;7.30;;;6.63;;
23304;SDS011;11821;51.456;8.844;2023-05-16T03:09:09;8.40;;;7.60;;
23304;SDS011;11821;51.456;8.844;2023-05-16T03:11:36;7.82;;;7.13;;
23304;SDS011;11821;51.456;8.844;2023-05-16T03:14:02;6.40;;;5.80;;
23304;SDS011;11821;51.456;8.844;2023-05-16T03:16:30;8.25;;;7.47;;
23304;SDS011;11821;51.456;8.844;2023-05-16T03:18:57;8.88;;;7.72;;
23304;SDS011;11821;51.456;8.844;2023-05-16T03:21:24;6.63;;;6.03;;
23304;SDS011;11821;51.456;8.844;2023-05-16T03:23:50;8.38;;;6.97;;
23304;SDS011;11821;51.456;8.844;2023-05-16T03:26:17;6.75;;;6.15;;
23304;SDS011;11821;51.456;8.844;2023-05-16T03:28:43;8.10;;;6.15;;
23304;SDS011;11821;51.456;8.844;2023-05-16T03:31:10;5.47;;;5.00;;
23304;SDS011;11821;51.456;8.844;2023-05-16T03:33:36;6.20;;;5.70;;
23304;SDS011;11821;51.456;8.844;2023-05-16T03:36:03;6.05;;;5.45;;
23304;SDS011;11821;51.456;8.844;2023-05-16T03:38:30;6.72;;;6.05;;
23304;SDS011;11821;51.456;8.844;2023-05-16T03:40:57;6.25;;;5.65;;
23304;SDS011;11821;51.456;8.844;2023-05-16T03:43:24;6.57;;;5.63;;
23304;SDS011;11821;51.456;8.844;2023-05-16T03:45:50;4.93;;;4.38;;
23304;SDS011;11821;51.456;8.844;2023-05-16T03:48:17;5.00;;;4.60;;
23304;SDS011;11821;51.456;8.844;2023-05-16T03:50:43;4.53;;;4.13;;
23304;SDS011;11821;51.456;8.844;2023-05-16T03:53:10;5.47;;;4.50;;
23304;SDS011;11821;51.456;8.844;2023-05-16T03:55:38;4.32;;;3.92;;
23304;SDS011;11821;51.456;8.844;2023-05-16T03:58:08;4.40;;;4.05;;
23304;SDS011;11821;51.456;8.844;2023-05-16T04:00:35;3.55;;;3.25;;
23304;SDS011;11821;51.456;8.844;2023-05-16T04:03:02;3.00;;;2.33;;
23304;SDS011;11821;51.456;8.844;2023-05-16T04:05:29;1.70;;;1.60;;
23304;SDS011;11821;51.456;8.844;2023-05-16T04:07:56;1.52;;;1.42;;
23304;SDS011;11821;51.456;8.844;2023-05-16T04:10:23;2.28;;;1.40;;
23304;SDS011;11821;51.456;8.844;2023-05-16T04:12:49;3.10;;;1.20;;
23304;SDS011;11821;51.456;8.844;2023-05-16T04:15:16;3.78;;;2.00;;
23304;SDS011;11821;51.456;8.844;2023-05-16T04:17:42;1.88;;;1.27;;
23304;SDS011;11821;51.456;8.844;2023-05-16T04:20:09;1.58;;;1.10;;
23304;SDS011;11821;51.456;8.844;2023-05-16T04:22:35;2.63;;;1.10;;
23304;SDS011;11821;51.456;8.844;2023-05-16T04:25:02;1.35;;;1.00;;
23304;SDS011;11821;51.456;8.844;2023-05-16T04:27:29;1.75;;;1.17;;
23304;SDS011;11821;51.456;8.844;2023-05-16T04:29:56;3.00;;;1.10;;
23304;SDS011;11821;51.456;8.844;2023-05-16T04:32:24;2.13;;;1.30;;
23304;SDS011;11821;51.456;8.844;2023-05-16T04:34:50;1.90;;;1.17;;
23304;SDS011;11821;51.456;8.844;2023-05-16T04:37:18;4.00;;;1.58;;
23304;SDS011;11821;51.456;8.844;2023-05-16T04:39:45;3.55;;;1.67;;
23304;SDS011;11821;51.456;8.844;2023-05-16T04:42:12;4.43;;;2.08;;
23304;SDS011;11821;51.456;8.844;2023-05-16T04:44:38;3.55;;;1.45;;
23304;SDS011;11821;51.456;8.844;2023-05-16T04:47:05;4.40;;;1.50;;
23304;SDS011;11821;51.456;8.844;2023-05-16T04:49:31;4.13;;;1.63;;
23304;SDS011;11821;51.456;8.844;2023-05-16T04:51:58;2.45;;;1.40;;
23304;SDS011;11821;51.456;8.844;2023-05-16T04:54:24;4.95;;;2.00;;
23304;SDS011;11821;51.456;8.844;2023-05-16T04:56:51;5.03;;;1.50;;
23304;SDS011;11821;51.456;8.844;2023-05-16T04:59:17;11.63;;;1.70;;
23304;SDS011;11821;51.456;8.844;2023-05-16T05:01:43;5.30;;;2.00;;
23304;SDS011;11821;51.456;8.844;2023-05-16T05:04:09;6.88;;;1.83;;
23304;SDS011;11821;51.456;8.844;2023-05-16T05:06:36;7.60;;;2.10;;
23304;SDS011;11821;51.456;8.844;2023-05-16T05:09:03;6.85;;;2.15;;
23304;SDS011;11821;51.456;8.844;2023-05-16T05:11:30;6.85;;;2.40;;
23304;SDS011;11821;51.456;8.844;2023-05-16T05:13:57;6.60;;;2.33;;
23304;SDS011;11821;51.456;8.844;2023-05-16T05:16:23;5.53;;;2.03;;
23304;SDS011;11821;51.456;8.844;2023-05-16T05:18:50;4.53;;;1.92;;
23304;SDS011;11821;51.456;8.844;2023-05-16T05:21:17;6.82;;;1.40;;
23304;SDS011;11821;51.456;8.844;2023-05-16T05:23:44;6.40;;;2.15;;
23304;SDS011;11821;51.456;8.844;2023-05-16T05:26:11;5.15;;;2.13;;
23304;SDS011;11821;51.456;8.844;2023-05-16T05:28:38;6.28;;;2.00;;
23304;SDS011;11821;51.456;8.844;2023-05-16T05:31:04;4.38;;;2.13;;
23304;SDS011;11821;51.456;8.844;2023-05-16T05:33:32;5.68;;;1.48;;
23304;SDS011;11821;51.456;8.844;2023-05-16T05:35:59;5.05;;;1.48;;
23304;SDS011;11821;51.456;8.844;2023-05-16T05:38:25;5.10;;;1.83;;
23304;SDS011;11821;51.456;8.844;2023-05-16T05:40:52;5.75;;;1.88;;
23304;SDS011;11821;51.456;8.844;2023-05-16T05:43:18;6.75;;;2.13;;
23304;SDS011;11821;51.456;8.844;2023-05-16T05:45:44;11.88;;;2.05;;
23304;SDS011;11821;51.456;8.844;2023-05-16T05:48:11;5.78;;;1.83;;
23304;SDS011;11821;51.456;8.844;2023-05-16T05:50:37;6.47;;;2.20;;
23304;SDS011;11821;51.456;8.844;2023-05-16T05:53:04;6.10;;;1.90;;
23304;SDS011;11821;51.456;8.844;2023-05-16T05:55:31;5.68;;;2.20;;
23304;SDS011;11821;51.456;8.844;2023-05-16T05:57:57;6.25;;;1.95;;
23304;SDS011;11821;51.456;8.844;2023-05-16T06:00:24;11.25;;;2.33;;
23304;SDS011;11821;51.456;8.844;2023-05-16T06:02:50;6.38;;;1.65;;
23304;SDS011;11821;51.456;8.844;2023-05-16T06:05:16;11.65;;;2.40;;
23304;SDS011;11821;51.456;8.844;2023-05-16T06:07:43;9.98;;;2.40;;
23304;SDS011;11821;51.456;8.844;2023-05-16T06:10:09;8.25;;;1.90;;
23304;SDS011;11821;51.456;8.844;2023-05-16T06:12:36;8.10;;;1.92;;
23304;SDS011;11821;51.456;8.844;2023-05-16T06:15:02;10.27;;;1.90;;
23304;SDS011;11821;51.456;8.844;2023-05-16T06:17:28;6.80;;;2.22;;
23304;SDS011;11821;51.456;8.844;2023-05-16T06:19:55;7.38;;;2.10;;
23304;SDS011;11821;51.456;8.844;2023-05-16T06:22:21;10.20;;;2.53;;
23304;SDS011;11821;51.456;8.844;2023-05-16T06:24:47;6.50;;;2.03;;
23304;SDS011;11821;51.456;8.844;2023-05-16T06:27:13;7.30;;;1.90;;
23304;SDS011;11821;51.456;8.844;2023-05-16T06:29:40;7.68;;;1.63;;
23304;SDS011;11821;51.456;8.844;2023-05-16T06:32:06;8.63;;;1.92;;
23304;SDS011;11821;51.456;8.844;2023-05-16T06:34:32;9.30;;;2.00;;
23304;SDS011;11821;51.456;8.844;2023-05-16T06:36:59;11.40;;;1.52;;
23304;SDS011;11821;51.456;8.844;2023-05-16T06:39:28;10.77;;;1.50;;
23304;SDS011;11821;51.456;8.844;2023-05-16T06:41:54;5.80;;;1.73;;
23304;SDS011;11821;51.456;8.844;2023-05-16T06:44:21;5.28;;;1.67;;
23304;SDS011;11821;51.456;8.844;2023-05-16T06:46:48;9.40;;;1.85;;
23304;SDS011;11821;51.456;8.844;2023-05-16T06:49:14;8.02;;;1.75;;
23304;SDS011;11821;51.456;8.844;2023-05-16T06:51:41;9.10;;;2.22;;
23304;SDS011;11821;51.456;8.844;2023-05-16T06:54:07;14.00;;;1.90;;
23304;SDS011;11821;51.456;8.844;2023-05-16T06:56:33;9.02;;;1.58;;
23304;SDS011;11821;51.456;8.844;2023-05-16T06:59:00;7.38;;;1.75;;
23304;SDS011;11821;51.456;8.844;2023-05-16T07:01:26;8.23;;;1.50;;
23304;SDS011;11821;51.456;8.844;2023-05-16T07:03:52;8.48;;;1.90;;
23304;SDS011;11821;51.456;8.844;2023-05-16T07:06:19;9.18;;;2.13;;
23304;SDS011;11821;51.456;8.844;2023-05-16T07:08:45;11.02;;;1.83;;
23304;SDS011;11821;51.456;8.844;2023-05-16T07:11:11;8.05;;;1.95;;
23304;SDS011;11821;51.456;8.844;2023-05-16T07:13:38;8.65;;;1.80;;
23304;SDS011;11821;51.456;8.844;2023-05-16T07:16:04;13.07;;;1.90;;
23304;SDS011;11821;51.456;8.844;2023-05-16T07:18:32;6.25;;;1.52;;
23304;SDS011;11821;51.456;8.844;2023-05-16T07:20:58;9.52;;;2.38;;
23304;SDS011;11821;51.456;8.844;2023-05-16T07:23:25;8.23;;;1.85;;
23304;SDS011;11821;51.456;8.844;2023-05-16T07:25:51;8.40;;;1.35;;
23304;SDS011;11821;51.456;8.844;2023-05-16T07:28:17;7.15;;;1.70;;
23304;SDS011;11821;51.456;8.844;2023-05-16T07:30:44;7.40;;;1.50;;
23304;SDS011;11821;51.456;8.844;2023-05-16T07:33:11;8.73;;;1.55;;
23304;SDS011;11821;51.456;8.844;2023-05-16T07:35:37;6.78;;;1.50;;
23304;SDS011;11821;51.456;8.844;2023-05-16T07:38:04;6.25;;;1.52;;
23304;SDS011;11821;51.456;8.844;2023-05-16T07:40:30;8.75;;;1.80;;
23304;SDS011;11821;51.456;8.844;2023-05-16T07:42:57;9.25;;;2.42;;
23304;SDS011;11821;51.456;8.844;2023-05-16T07:45:24;7.22;;;1.55;;
23304;SDS011;11821;51.456;8.844;2023-05-16T07:47:50;8.80;;;2.20;;
23304;SDS011;11821;51.456;8.844;2023-05-16T07:50:16;8.70;;;1.60;;
23304;SDS011;11821;51.456;8.844;2023-05-16T07:52:43;5.85;;;1.60;;
23304;SDS011;11821;51.456;8.844;2023-05-16T07:55:09;6.22;;;2.47;;
23304;SDS011;11821;51.456;8.844;2023-05-16T07:57:35;7.43;;;1.58;;
23304;SDS011;11821;51.456;8.844;2023-05-16T08:00:02;8.30;;;1.60;;
23304;SDS011;11821;51.456;8.844;2023-05-16T08:02:37;4.55;;;1.25;;
23304;SDS011;11821;51.456;8.844;2023-05-16T08:05:04;7.00;;;1.73;;
23304;SDS011;11821;51.456;8.844;2023-05-16T08:07:30;7.18;;;1.42;;
23304;SDS011;11821;51.456;8.844;2023-05-16T08:09:57;7.55;;;1.80;;
23304;SDS011;11821;51.456;8.844;2023-05-16T08:12:23;9.73;;;2.30;;
23304;SDS011;11821;51.456;8.844;2023-05-16T08:14:50;14.63;;;1.75;;
23304;SDS011;11821;51.456;8.844;2023-05-16T08:17:16;5.80;;;1.30;;
23304;SDS011;11821;51.456;8.844;2023-05-16T08:19:42;5.15;;;1.02;;
23304;SDS011;11821;51.456;8.844;2023-05-16T08:22:09;8.80;;;1.40;;
23304;SDS011;11821;51.456;8.844;2023-05-16T08:24:37;5.18;;;1.48;;
23304;SDS011;11821;51.456;8.844;2023-05-16T08:27:07;4.23;;;1.30;;
23304;SDS011;11821;51.456;8.844;2023-05-16T08:29:33;14.02;;;1.77;;
23304;SDS011;11821;51.456;8.844;2023-05-16T08:32:00;5.22;;;1.30;;
23304;SDS011;11821;51.456;8.844;2023-05-16T08:34:26;5.28;;;1.40;;
23304;SDS011;11821;51.456;8.844;2023-05-16T08:36:55;4.32;;;1.23;;
23304;SDS011;11821;51.456;8.844;2023-05-16T08:39:21;6.15;;;1.42;;
23304;SDS011;11821;51.456;8.844;2023-05-16T08:41:47;6.32;;;1.40;;
23304;SDS011;11821;51.456;8.844;2023-05-16T08:44:14;6.80;;;1.48;;
23304;SDS011;11821;51.456;8.844;2023-05-16T08:46:50;7.82;;;1.63;;
23304;SDS011;11821;51.456;8.844;2023-05-16T08:49:17;7.55;;;1.48;;
23304;SDS011;11821;51.456;8.844;2023-05-16T08:51:45;4.10;;;1.30;;
23304;SDS011;11821;51.456;8.844;2023-05-16T08:54:13;8.13;;;1.73;;
23304;SDS011;11821;51.456;8.844;2023-05-16T08:56:41;6.18;;;1.50;;
23304;SDS011;11821;51.456;8.844;2023-05-16T08:59:09;5.40;;;1.27;;
23304;SDS011;11821;51.456;8.844;2023-05-16T09:01:39;7.10;;;1.48;;
23304;SDS011;11821;51.456;8.844;2023-05-16T09:04:06;7.78;;;1.77;;
23304;SDS011;11821;51.456;8.844;2023-05-16T09:06:36;5.72;;;1.40;;
23304;SDS011;11821;51.456;8.844;2023-05-16T09:09:03;4.55;;;1.08;;
23304;SDS011;11821;51.456;8.844;2023-05-16T09:11:32;5.97;;;1.50;;
23304;SDS011;11821;51.456;8.844;2023-05-16T09:14:00;5.38;;;1.63;;
23304;SDS011;11821;51.456;8.844;2023-05-16T09:16:26;4.18;;;1.52;;
23304;SDS011;11821;51.456;8.844;2023-05-16T09:18:56;6.88;;;1.55;;
23304;SDS011;11821;51.456;8.844;2023-05-16T09:21:28;7.60;;;1.58;;
23304;SDS011;11821;51.456;8.844;2023-05-16T09:24:01;5.53;;;1.80;;
23304;SDS011;11821;51.456;8.844;2023-05-16T09:26:31;3.55;;;1.10;;
23304;SDS011;11821;51.456;8.844;2023-05-16T09:28:58;8.50;;;2.03;;
23304;SDS011;11821;51.456;8.844;2023-05-16T09:31:25;5.45;;;1.63;;
23304;SDS011;11821;51.456;8.844;2023-05-16T09:34:03;7.32;;;2.05;;
23304;SDS011;11821;51.456;8.844;2023-05-16T09:36:32;5.22;;;1.63;;
23304;SDS011;11821;51.456;8.844;2023-05-16T09:38:59;3.75;;;1.15;;
23304;SDS011;11821;51.456;8.844;2023-05-16T09:41:26;5.63;;;1.85;;
23304;SDS011;11821;51.456;8.844;2023-05-16T09:43:52;4.55;;;1.45;;
23304;SDS011;11821;51.456;8.844;2023-05-16T09:46:18;6.65;;;1.50;;
23304;SDS011;11821;51.456;8.844;2023-05-16T09:48:52;5.15;;;1.33;;
23304;SDS011;11821;51.456;8.844;2023-05-16T09:51:22;4.28;;;1.30;;
23304;SDS011;11821;51.456;8.844;2023-05-16T09:53:49;8.82;;;1.70;;
23304;SDS011;11821;51.456;8.844;2023-05-16T09:56:15;6.18;;;1.50;;
23304;SDS011;11821;51.456;8.844;2023-05-16T09:58:42;4.78;;;1.10;;
23304;SDS011;11821;51.456;8.844;2023-05-16T10:01:10;4.93;;;1.20;;
23304;SDS011;11821;51.456;8.844;2023-05-16T10:03:37;6.68;;;1.45;;
23304;SDS011;11821;51.456;8.844;2023-05-16T10:06:05;3.50;;;1.05;;
23304;SDS011;11821;51.456;8.844;2023-05-16T10:08:33;9.65;;;1.40;;
23304;SDS011;11821;51.456;8.844;2023-05-16T10:11:01;5.20;;;1.50;;
23304;SDS011;11821;51.456;8.844;2023-05-16T10:13:32;5.35;;;1.45;;
23304;SDS011;11821;51.456;8.844;2023-05-16T10:16:00;5.30;;;1.23;;
23304;SDS011;11821;51.456;8.844;2023-05-16T10:18:32;9.40;;;1.70;;
23304;SDS011;11821;51.456;8.844;2023-05-16T10:21:02;4.25;;;1.42;;
23304;SDS011;11821;51.456;8.844;2023-05-16T10:23:31;5.95;;;1.50;;
23304;SDS011;11821;51.456;8.844;2023-05-16T10:25:59;6.15;;;1.67;;
23304;SDS011;11821;51.456;8.844;2023-05-16T10:28:28;5.57;;;1.50;;
23304;SDS011;11821;51.456;8.844;2023-05-16T10:30:54;6.70;;;1.42;;
23304;SDS011;11821;51.456;8.844;2023-05-16T10:33:21;5.25;;;1.13;;
23304;SDS011;11821;51.456;8.844;2023-05-16T10:35:47;5.07;;;1.23;;
23304;SDS011;11821;51.456;8.844;2023-05-16T10:38:14;5.22;;;1.13;;
23304;SDS011;11821;51.456;8.844;2023-05-16T10:40:41;4.90;;;1.40;;
23304;SDS011;11821;51.456;8.844;2023-05-16T10:43:09;3.28;;;1.27;;
23304;SDS011;11821;51.456;8.844;2023-05-16T10:45:46;8.55;;;1.40;;
23304;SDS011;11821;51.456;8.844;2023-05-16T10:48:29;6.03;;;1.33;;
23304;SDS011;11821;51.456;8.844;2023-05-16T10:51:00;6.13;;;1.02;;
23304;SDS011;11821;51.456;8.844;2023-05-16T11:01:15;4.60;;;1.35;;
23304;SDS011;11821;51.456;8.844;2023-05-16T11:06:24;5.97;;;1.60;;
23304;SDS011;11821;51.456;8.844;2023-05-16T11:14:18;4.90;;;1.38;;
23304;SDS011;11821;51.456;8.844;2023-05-16T11:19:33;5.43;;;1.33;;
23304;SDS011;11821;51.456;8.844;2023-05-16T11:22:03;4.45;;;1.15;;
23304;SDS011;11821;51.456;8.844;2023-05-16T11:24:31;3.20;;;1.23;;
23304;SDS011;11821;51.456;8.844;2023-05-16T11:27:01;3.53;;;0.98;;
23304;SDS011;11821;51.456;8.844;2023-05-16T11:29:32;5.15;;;1.67;;
23304;SDS011;11821;51.456;8.844;2023-05-16T11:32:00;5.63;;;1.17;;
23304;SDS011;11821;51.456;8.844;2023-05-16T11:34:29;3.70;;;1.20;;
23304;SDS011;11821;51.456;8.844;2023-05-16T11:36:57;1.85;;;0.93;;
23304;SDS011;11821;51.456;8.844;2023-05-16T11:39:24;2.80;;;1.20;;
23304;SDS011;11821;51.456;8.844;2023-05-16T11:41:52;3.03;;;1.15;;
23304;SDS011;11821;51.456;8.844;2023-05-16T11:44:18;3.33;;;1.00;;
23304;SDS011;11821;51.456;8.844;2023-05-16T11:46:44;4.05;;;0.82;;
23304;SDS011;11821;51.456;8.844;2023-05-16T11:49:11;6.28;;;1.38;;
23304;SDS011;11821;51.456;8.844;2023-05-16T11:51:38;5.10;;;1.30;;
23304;SDS011;11821;51.456;8.844;2023-05-16T11:54:06;4.18;;;1.38;;
23304;SDS011;11821;51.456;8.844;2023-05-16T11:56:34;5.20;;;1.10;;
23304;SDS011;11821;51.456;8.844;2023-05-16T11:59:01;3.17;;;1.10;;
23304;SDS011;11821;51.456;8.844;2023-05-16T12:01:34;3.10;;;1.13;;
23304;SDS011;11821;51.456;8.844;2023-05-16T12:04:11;2.55;;;0.98;;
23304;SDS011;11821;51.456;8.844;2023-05-16T12:06:39;3.28;;;1.17;;
23304;SDS011;11821;51.456;8.844;2023-05-16T12:09:10;2.80;;;0.80;;
23304;SDS011;11821;51.456;8.844;2023-05-16T12:11:41;5.00;;;1.13;;
23304;SDS011;11821;51.456;8.844;2023-05-16T12:14:09;1.92;;;0.70;;
23304;SDS011;11821;51.456;8.844;2023-05-16T12:16:37;2.92;;;1.30;;
23304;SDS011;11821;51.456;8.844;2023-05-16T12:19:06;3.72;;;1.25;;
23304;SDS011;11821;51.456;8.844;2023-05-16T12:21:34;3.40;;;1.10;;
23304;SDS011;11821;51.456;8.844;2023-05-16T12:24:01;3.53;;;1.08;;
23304;SDS011;11821;51.456;8.844;2023-05-16T12:26:28;4.13;;;1.75;;
23304;SDS011;11821;51.456;8.844;2023-05-16T12:29:02;3.65;;;1.27;;
23304;SDS011;11821;51.456;8.844;2023-05-16T12:31:30;4.30;;;1.05;;
23304;SDS011;11821;51.456;8.844;2023-05-16T12:34:00;4.30;;;1.00;;
23304;SDS011;11821;51.456;8.844;2023-05-16T12:36:30;2.35;;;0.70;;
23304;SDS011;11821;51.456;8.844;2023-05-16T12:39:02;5.88;;;1.30;;
23304;SDS011;11821;51.456;8.844;2023-05-16T12:41:29;3.63;;;1.17;;
23304;SDS011;11821;51.456;8.844;2023-05-16T12:44:17;3.03;;;0.98;;
23304;SDS011;11821;51.456;8.844;2023-05-16T12:46:44;6.00;;;1.95;;
23304;SDS011;11821;51.456;8.844;2023-05-16T12:49:21;2.33;;;1.00;;
23304;SDS011;11821;51.456;8.844;2023-05-16T12:51:49;3.05;;;0.80;;
23304;SDS011;11821;51.456;8.844;2023-05-16T12:54:17;2.92;;;1.15;;
23304;SDS011;11821;51.456;8.844;2023-05-16T12:56:43;3.00;;;0.90;;
23304;SDS011;11821;51.456;8.844;2023-05-16T12:59:10;2.00;;;0.60;;
23304;SDS011;11821;51.456;8.844;2023-05-16T13:01:39;3.92;;;1.02;;
23304;SDS011;11821;51.456;8.844;2023-05-16T13:04:06;2.53;;;1.15;;
23304;SDS011;11821;51.456;8.844;2023-05-16T13:06:33;3.75;;;1.02;;
23304;SDS011;11821;51.456;8.844;2023-05-16T13:08:59;1.60;;;0.65;;
23304;SDS011;11821;51.456;8.844;2023-05-16T13:11:26;3.15;;;0.70;;
23304;SDS011;11821;51.456;8.844;2023-05-16T13:13:52;2.95;;;1.05;;
23304;SDS011;11821;51.456;8.844;2023-05-16T13:16:19;1.27;;;0.60;;
23304;SDS011;11821;51.456;8.844;2023-05-16T13:18:45;3.03;;;0.95;;
23304;SDS011;11821;51.456;8.844;2023-05-16T13:21:12;2.60;;;0.60;;
23304;SDS011;11821;51.456;8.844;2023-05-16T13:23:38;1.55;;;0.80;;
23304;SDS011;11821;51.456;8.844;2023-05-16T13:26:05;2.03;;;0.77;;
23304;SDS011;11821;51.456;8.844;2023-05-16T13:28:31;1.88;;;0.77;;
23304;SDS011;11821;51.456;8.844;2023-05-16T13:30:58;3.47;;;0.65;;
23304;SDS011;11821;51.456;8.844;2023-05-16T13:33:24;1.83;;;0.80;;
23304;SDS011;11821;51.456;8.844;2023-05-16T13:35:51;3.25;;;0.85;;
23304;SDS011;11821;51.456;8.844;2023-05-16T13:38:19;1.80;;;0.73;;
23304;SDS011;11821;51.456;8.844;2023-05-16T13:40:46;9.23;;;0.90;;
23304;SDS011;11821;51.456;8.844;2023-05-16T13:43:12;1.70;;;0.80;;
23304;SDS011;11821;51.456;8.844;2023-05-16T13:45:40;2.90;;;0.68;;
23304;SDS011;11821;51.456;8.844;2023-05-16T13:48:06;2.00;;;0.73;;
23304;SDS011;11821;51.456;8.844;2023-05-16T13:50:32;2.83;;;0.73;;
23304;SDS011;11821;51.456;8.844;2023-05-16T13:52:59;2.13;;;0.73;;
23304;SDS011;11821;51.456;8.844;2023-05-16T13:55:25;2.33;;;0.80;;
23304;SDS011;11821;51.456;8.844;2023-05-16T13:57:52;5.05;;;0.90;;
23304;SDS011;11821;51.456;8.844;2023-05-16T14:00:18;2.17;;;0.77;;
23304;SDS011;11821;51.456;8.844;2023-05-16T14:02:45;3.20;;;1.00;;
23304;SDS011;11821;51.456;8.844;2023-05-16T14:05:11;2.80;;;0.93;;
23304;SDS011;11821;51.456;8.844;2023-05-16T14:07:37;2.03;;;0.80;;
23304;SDS011;11821;51.456;8.844;2023-05-16T14:10:04;2.97;;;0.70;;
23304;SDS011;11821;51.456;8.844;2023-05-16T14:12:31;2.97;;;1.40;;
23304;SDS011;11821;51.456;8.844;2023-05-16T14:14:57;2.75;;;0.70;;
23304;SDS011;11821;51.456;8.844;2023-05-16T14:17:24;4.65;;;1.00;;
23304;SDS011;11821;51.456;8.844;2023-05-16T14:19:51;2.63;;;0.85;;
23304;SDS011;11821;51.456;8.844;2023-05-16T14:22:18;2.92;;;0.95;;
23304;SDS011;11821;51.456;8.844;2023-05-16T14:24:45;4.40;;;1.02;;
23304;SDS011;11821;51.456;8.844;2023-05-16T14:27:12;3.38;;;0.90;;
23304;SDS011;11821;51.456;8.844;2023-05-16T14:29:39;2.90;;;0.73;;
23304;SDS011;11821;51.456;8.844;2023-05-16T14:32:08;3.08;;;1.02;;
23304;SDS011;11821;51.456;8.844;2023-05-16T14:34:35;3.53;;;1.00;;
23304;SDS011;11821;51.456;8.844;2023-05-16T14:37:02;2.35;;;0.90;;
23304;SDS011;11821;51.456;8.844;2023-05-16T14:39:28;2.83;;;0.70;;
23304;SDS011;11821;51.456;8.844;2023-05-16T14:41:54;2.25;;;1.10;;
23304;SDS011;11821;51.456;8.844;2023-05-16T14:44:21;2.03;;;0.70;;
23304;SDS011;11821;51.456;8.844;2023-05-16T14:46:49;2.35;;;0.77;;
23304;SDS011;11821;51.456;8.844;2023-05-16T14:49:16;1.95;;;0.75;;
23304;SDS011;11821;51.456;8.844;2023-05-16T14:51:42;3.22;;;0.73;;
23304;SDS011;11821;51.456;8.844;2023-05-16T14:54:13;3.88;;;0.93;;
23304;SDS011;11821;51.456;8.844;2023-05-16T14:56:41;2.10;;;0.77;;
23304;SDS011;11821;51.456;8.844;2023-05-16T14:59:07;1.70;;;0.80;;
23304;SDS011;11821;51.456;8.844;2023-05-16T15:01:34;3.55;;;0.75;;
23304;SDS011;11821;51.456;8.844;2023-05-16T15:04:00;3.03;;;0.90;;
23304;SDS011;11821;51.456;8.844;2023-05-16T15:06:26;3.97;;;0.82;;
23304;SDS011;11821;51.456;8.844;2023-05-16T15:08:53;2.30;;;0.93;;
23304;SDS011;11821;51.456;8.844;2023-05-16T15:11:19;2.95;;;0.90;;
23304;SDS011;11821;51.456;8.844;2023-05-16T15:13:46;2.58;;;0.75;;
23304;SDS011;11821;51.456;8.844;2023-05-16T15:16:13;3.22;;;0.80;;
23304;SDS011;11821;51.456;8.844;2023-05-16T15:18:39;2.80;;;0.80;;
23304;SDS011;11821;51.456;8.844;2023-05-16T15:21:06;3.00;;;0.80;;
23304;SDS011;11821;51.456;8.844;2023-05-16T15:23:33;2.80;;;1.00;;